createdAt,value
2018-10-16T00:00:28.873Z,10.27
2018-10-16T00:02:57.416Z,10.63
2018-10-16T00:05:25.878Z,9.97
2018-10-16T00:07:54.424Z,10.80
2018-10-16T00:10:28.356Z,10.10
2018-10-16T00:12:56.980Z,10.20
2018-10-16T00:15:25.508Z,10.50
2018-10-16T00:17:54.019Z,10.90
2018-10-16T00:20:22.512Z,10.20
2018-10-16T00:22:51.025Z,10.07
2018-10-16T00:25:19.504Z,9.70
2018-10-16T00:27:47.986Z,9.37
2018-10-16T00:30:16.516Z,10.30
2018-10-16T00:32:45.228Z,9.73
2018-10-16T00:35:13.593Z,9.10
2018-10-16T00:37:42.072Z,9.63
2018-10-16T00:40:10.756Z,9.17
2018-10-16T00:42:39.241Z,9.23
2018-10-16T00:45:08.573Z,8.93
2018-10-16T00:47:37.138Z,9.77
2018-10-16T00:50:05.707Z,9.33
2018-10-16T00:52:34.366Z,9.17
2018-10-16T00:55:02.993Z,8.57
2018-10-16T00:57:31.511Z,8.80
2018-10-16T00:59:59.991Z,9.20
2018-10-16T01:02:28.476Z,9.83
2018-10-16T01:04:56.963Z,9.10
2018-10-16T01:07:25.459Z,9.37
2018-10-16T01:09:53.936Z,9.47
2018-10-16T01:12:22.464Z,9.73
2018-10-16T01:14:50.948Z,9.90
2018-10-16T01:17:19.458Z,9.67
2018-10-16T01:19:47.932Z,10.13
2018-10-16T01:22:16.457Z,9.90
2018-10-16T01:24:44.978Z,9.47
2018-10-16T01:27:13.480Z,9.80
2018-10-16T01:29:41.969Z,9.47
2018-10-16T01:32:10.502Z,10.13
2018-10-16T01:34:39.003Z,9.27
2018-10-16T01:37:07.490Z,10.17
2018-10-16T01:39:36.020Z,10.37
2018-10-16T01:42:04.517Z,11.30
2018-10-16T01:44:32.992Z,11.60
2018-10-16T01:47:01.569Z,12.83
2018-10-16T01:49:30.017Z,10.63
2018-10-16T01:51:58.606Z,11.50
2018-10-16T01:54:27.096Z,11.00
2018-10-16T01:56:55.583Z,10.67
2018-10-16T01:59:24.096Z,10.13
2018-10-16T02:01:52.596Z,10.00
2018-10-16T02:04:21.071Z,9.93
2018-10-16T02:06:49.531Z,10.33
2018-10-16T02:09:18.004Z,9.63
2018-10-16T02:11:46.501Z,10.57
2018-10-16T02:14:14.948Z,11.13
2018-10-16T02:16:43.468Z,11.17
2018-10-16T02:19:11.960Z,10.40
2018-10-16T02:21:41.916Z,9.90
2018-10-16T02:24:10.380Z,10.87
2018-10-16T02:26:38.855Z,10.23
2018-10-16T02:29:07.327Z,10.73
2018-10-16T02:31:35.807Z,10.63
2018-10-16T02:34:04.413Z,11.00
2018-10-16T02:36:32.893Z,11.43
2018-10-16T02:39:01.359Z,10.53
2018-10-16T02:41:29.844Z,10.37
2018-10-16T02:43:59.348Z,10.60
2018-10-16T02:46:27.841Z,11.33
2018-10-16T02:48:56.339Z,10.93
2018-10-16T02:51:25.851Z,10.90
2018-10-16T02:53:54.340Z,10.43
2018-10-16T02:56:22.870Z,10.00
2018-10-16T02:58:51.320Z,9.67
2018-10-16T03:01:19.809Z,10.23
2018-10-16T03:03:48.280Z,9.30
2018-10-16T03:06:16.766Z,9.70
2018-10-16T03:08:45.216Z,10.40
2018-10-16T03:11:13.719Z,10.17
2018-10-16T03:13:42.185Z,9.50
2018-10-16T03:16:10.641Z,9.50
2018-10-16T03:18:39.164Z,10.33
2018-10-16T03:21:07.623Z,10.43
2018-10-16T03:23:36.187Z,10.77
2018-10-16T03:26:04.857Z,10.70
2018-10-16T03:28:33.321Z,11.03
2018-10-16T03:31:01.857Z,11.20
2018-10-16T03:33:30.327Z,13.00
2018-10-16T03:35:58.799Z,11.07
2018-10-16T03:38:27.634Z,11.27
2018-10-16T03:40:57.140Z,10.30
2018-10-16T03:43:25.610Z,10.20
2018-10-16T03:45:54.130Z,11.37
2018-10-16T03:48:22.603Z,10.93
2018-10-16T03:50:52.120Z,11.10
2018-10-16T03:53:20.580Z,11.00
2018-10-16T03:55:49.127Z,11.53
2018-10-16T03:58:17.603Z,11.37
2018-10-16T04:00:46.084Z,10.00
2018-10-16T04:03:15.672Z,10.30
2018-10-16T04:05:44.120Z,10.43
2018-10-16T04:08:12.590Z,10.43
2018-10-16T04:10:42.207Z,11.27
2018-10-16T04:13:10.679Z,10.53
2018-10-16T04:15:39.168Z,10.20
2018-10-16T04:18:07.649Z,10.43
2018-10-16T04:20:36.172Z,10.43
2018-10-16T04:23:04.751Z,9.97
2018-10-16T04:25:33.210Z,11.70
2018-10-16T04:28:01.699Z,11.03
2018-10-16T04:30:30.201Z,10.73
2018-10-16T04:32:58.727Z,11.03
2018-10-16T04:35:27.284Z,10.37
2018-10-16T04:37:56.808Z,10.50
2018-10-16T04:40:25.290Z,10.33
2018-10-16T04:42:53.773Z,10.90
2018-10-16T04:45:22.333Z,11.87
2018-10-16T04:47:50.807Z,11.23
2018-10-16T04:50:19.364Z,10.67
2018-10-16T04:52:47.808Z,11.43
2018-10-16T04:55:16.321Z,11.23
2018-10-16T04:57:44.864Z,10.90
2018-10-16T05:00:13.389Z,11.10
2018-10-16T05:02:42.248Z,11.67
2018-10-16T05:05:16.379Z,10.17
2018-10-16T05:07:44.871Z,10.90
2018-10-16T05:10:13.324Z,10.33
2018-10-16T05:12:41.808Z,10.67
2018-10-16T05:15:11.096Z,11.47
2018-10-16T05:17:39.552Z,10.67
2018-10-16T05:20:08.079Z,11.03
2018-10-16T05:22:37.616Z,11.40
2018-10-16T05:25:06.143Z,11.20
2018-10-16T05:27:34.724Z,11.13
2018-10-16T05:30:04.276Z,11.70
2018-10-16T05:32:32.736Z,10.47
2018-10-16T05:35:01.264Z,10.93
2018-10-16T05:37:29.716Z,10.33
2018-10-16T05:39:58.185Z,10.87
2018-10-16T05:42:27.660Z,16.17
2018-10-16T05:44:56.171Z,17.87
2018-10-16T05:47:24.982Z,18.10
2018-10-16T05:49:54.703Z,16.90
2018-10-16T05:52:23.176Z,21.40
2018-10-16T05:54:51.684Z,13.80
2018-10-16T05:57:20.153Z,12.97
2018-10-16T05:59:48.649Z,13.70
2018-10-16T06:02:17.119Z,14.03
2018-10-16T06:04:45.700Z,15.33
2018-10-16T06:07:14.226Z,13.87
2018-10-16T06:09:42.740Z,13.43
2018-10-16T06:12:11.256Z,10.97
2018-10-16T06:14:39.748Z,10.47
2018-10-16T06:17:08.285Z,10.93
2018-10-16T06:19:36.768Z,11.37
2018-10-16T06:22:06.299Z,11.77
2018-10-16T06:24:34.857Z,12.33
2018-10-16T06:27:03.265Z,12.20
2018-10-16T06:29:31.755Z,11.60
2018-10-16T06:32:00.252Z,11.57
2018-10-16T06:34:28.780Z,12.40
2018-10-16T06:36:57.269Z,11.93
2018-10-16T06:39:25.757Z,11.60
2018-10-16T06:41:54.214Z,10.70
2018-10-16T06:44:22.719Z,11.77
2018-10-16T06:46:51.188Z,10.70
2018-10-16T06:49:19.659Z,11.90
2018-10-16T06:51:48.253Z,11.83
2018-10-16T06:54:16.749Z,11.00
2018-10-16T06:56:45.236Z,12.60
2018-10-16T06:59:14.633Z,12.20
2018-10-16T07:01:43.099Z,12.40
2018-10-16T07:04:12.668Z,13.97
2018-10-16T07:06:41.214Z,12.77
2018-10-16T07:09:09.925Z,12.57
2018-10-16T07:11:39.181Z,13.67
2018-10-16T07:14:09.984Z,13.27
2018-10-16T07:16:38.468Z,13.03
2018-10-16T07:19:08.732Z,13.67
2018-10-16T07:21:37.295Z,14.23
2018-10-16T07:24:05.924Z,14.33
2018-10-16T07:26:34.377Z,14.63
2018-10-16T07:29:03.977Z,15.37
2018-10-16T07:31:32.425Z,13.77
2018-10-16T07:34:00.904Z,13.97
2018-10-16T07:36:29.521Z,13.70
2018-10-16T07:38:58.076Z,13.57
2018-10-16T07:41:26.589Z,13.63
2018-10-16T07:43:55.060Z,13.50
2018-10-16T07:46:23.524Z,13.70
2018-10-16T07:48:52.038Z,14.23
2018-10-16T07:51:21.594Z,14.33
2018-10-16T07:53:50.044Z,14.23
2018-10-16T07:56:18.566Z,14.70
2018-10-16T07:58:47.065Z,14.30
2018-10-16T08:01:15.577Z,15.37
2018-10-16T08:03:44.062Z,15.13
2018-10-16T08:06:12.531Z,15.37
2018-10-16T08:08:40.993Z,16.87
2018-10-16T08:11:09.529Z,14.93
2018-10-16T08:13:39.062Z,15.03
2018-10-16T08:16:08.289Z,14.87
2018-10-16T08:18:36.757Z,15.77
2018-10-16T08:21:12.291Z,17.20
2018-10-16T08:23:40.741Z,18.57
2018-10-16T08:26:09.249Z,19.63
2018-10-16T08:28:37.725Z,20.10
2018-10-16T08:31:06.343Z,20.20
2018-10-16T08:33:34.805Z,19.97
2018-10-16T08:36:03.394Z,18.67
2018-10-16T08:38:39.745Z,19.03
2018-10-16T08:41:08.558Z,19.27
2018-10-16T08:43:44.495Z,22.23
2018-10-16T08:46:18.712Z,18.23
2018-10-16T08:48:52.788Z,18.07
2018-10-16T08:51:29.119Z,16.47
2018-10-16T08:53:57.577Z,17.00
2018-10-16T08:56:26.070Z,17.27
2018-10-16T08:58:54.546Z,17.30
2018-10-16T09:01:23.028Z,18.70
2018-10-16T09:03:51.544Z,21.90
2018-10-16T09:06:20.004Z,18.10
2018-10-16T09:08:48.460Z,19.07
2018-10-16T09:11:16.927Z,18.97
2018-10-16T09:13:45.490Z,19.27
2018-10-16T09:16:13.932Z,19.83
2018-10-16T09:18:42.449Z,19.40
2018-10-16T09:21:10.954Z,20.70
2018-10-16T09:23:39.443Z,20.73
2018-10-16T09:26:07.932Z,20.73
2018-10-16T09:28:36.848Z,20.13
2018-10-16T09:31:05.463Z,20.47
2018-10-16T09:33:33.909Z,21.43
2018-10-16T09:36:02.728Z,20.27
2018-10-16T09:38:31.186Z,21.33
2018-10-16T09:41:00.741Z,21.30
2018-10-16T09:43:29.217Z,20.33
2018-10-16T09:45:57.692Z,21.33
2018-10-16T09:48:26.179Z,21.13
2018-10-16T09:50:54.785Z,22.57
2018-10-16T09:53:23.260Z,22.30
2018-10-16T09:55:51.720Z,20.97
2018-10-16T09:58:20.218Z,21.97
2018-10-16T10:00:54.186Z,22.17
2018-10-16T10:03:22.839Z,24.45
2018-10-16T10:05:51.404Z,22.20
2018-10-16T10:08:19.909Z,21.87
2018-10-16T10:10:48.449Z,21.85
2018-10-16T10:13:16.875Z,22.17
2018-10-16T10:15:45.437Z,22.10
2018-10-16T10:18:13.971Z,22.00
2018-10-16T10:20:42.428Z,21.47
2018-10-16T10:23:10.954Z,23.40
2018-10-16T10:25:39.427Z,23.77
2018-10-16T10:28:07.924Z,22.53
2018-10-16T10:30:36.395Z,23.37
2018-10-16T10:33:04.961Z,22.43
2018-10-16T10:35:33.498Z,22.37
2018-10-16T10:38:01.891Z,22.80
2018-10-16T10:40:30.355Z,21.70
2018-10-16T10:42:58.829Z,21.97
2018-10-16T10:45:27.313Z,21.50
2018-10-16T10:47:55.799Z,20.83
2018-10-16T10:50:24.532Z,22.40
2018-10-16T10:52:52.808Z,23.83
2018-10-16T10:55:21.234Z,154.00
2018-10-16T10:57:49.724Z,138.73
2018-10-16T11:00:18.208Z,63.00
2018-10-16T11:02:48.046Z,155.37
2018-10-16T11:05:16.513Z,40.93
2018-10-16T11:07:45.013Z,24.70
2018-10-16T11:10:14.144Z,215.80
2018-10-16T11:12:43.767Z,218.17
2018-10-16T11:15:12.357Z,32.97
2018-10-16T11:17:41.229Z,26.93
2018-10-16T11:20:11.438Z,26.50
2018-10-16T11:22:39.980Z,24.10
2018-10-16T11:25:09.434Z,23.10
2018-10-16T11:27:38.012Z,25.00
2018-10-16T11:30:08.062Z,24.43
2018-10-16T11:32:36.505Z,26.07
2018-10-16T11:35:05.169Z,27.00
2018-10-16T11:37:33.650Z,26.57
2018-10-16T11:40:02.113Z,25.00
2018-10-16T11:42:30.596Z,25.43
2018-10-16T11:44:59.160Z,24.07
2018-10-16T11:47:27.579Z,26.53
2018-10-16T11:49:56.110Z,26.20
2018-10-16T11:52:24.626Z,26.07
2018-10-16T11:54:53.141Z,25.37
2018-10-16T11:57:21.635Z,24.90
2018-10-16T11:59:50.120Z,22.37
2018-10-16T12:02:18.702Z,22.80
2018-10-16T12:04:47.233Z,22.17
2018-10-16T12:07:16.028Z,40.07
2018-10-16T12:09:44.754Z,157.87
2018-10-16T12:12:13.227Z,105.07
2018-10-16T12:14:41.785Z,23.97
2018-10-16T12:17:16.974Z,21.83
2018-10-16T12:19:50.341Z,22.27
2018-10-16T12:22:18.771Z,20.87
2018-10-16T12:24:47.307Z,18.77
2018-10-16T12:27:15.995Z,18.93
2018-10-16T12:29:44.424Z,21.47
2018-10-16T12:32:12.948Z,21.17
2018-10-16T12:34:41.352Z,20.83
2018-10-16T12:37:09.902Z,20.17
2018-10-16T12:39:38.338Z,17.17
2018-10-16T12:42:06.784Z,17.97
2018-10-16T12:44:35.280Z,16.30
2018-10-16T12:47:03.893Z,14.43
2018-10-16T12:49:32.361Z,12.67
2018-10-16T12:52:00.818Z,13.00
2018-10-16T12:54:29.356Z,14.73
2018-10-16T12:56:57.924Z,12.60
2018-10-16T12:59:26.365Z,11.80
2018-10-16T13:01:55.372Z,11.93
2018-10-16T13:04:23.835Z,10.33
2018-10-16T13:06:52.309Z,10.83
2018-10-16T13:09:20.815Z,11.33
2018-10-16T13:11:49.274Z,11.33
2018-10-16T13:14:17.832Z,9.90
2018-10-16T13:16:46.251Z,10.13
2018-10-16T13:19:14.700Z,11.10
2018-10-16T13:21:43.248Z,9.60
2018-10-16T13:24:11.761Z,10.20
2018-10-16T13:26:40.245Z,10.13
2018-10-16T13:29:08.772Z,8.97
2018-10-16T13:31:37.254Z,9.47
2018-10-16T13:34:05.792Z,10.67
2018-10-16T13:36:34.249Z,9.70
2018-10-16T13:39:02.801Z,8.93
2018-10-16T13:41:31.296Z,9.10
2018-10-16T13:43:59.874Z,6.83
2018-10-16T13:46:28.472Z,8.63
2018-10-16T13:48:56.917Z,9.30
2018-10-16T13:51:25.382Z,7.10
2018-10-16T13:53:53.851Z,66.63
2018-10-16T13:56:22.329Z,22.27
2018-10-16T13:58:50.801Z,13.17
2018-10-16T14:01:20.112Z,11.07
2018-10-16T14:03:48.780Z,11.80
2018-10-16T14:06:17.234Z,7.73
2018-10-16T14:08:45.719Z,7.67
2018-10-16T14:11:14.199Z,27.30
2018-10-16T14:13:42.689Z,10.87
2018-10-16T14:16:11.399Z,12.27
2018-10-16T14:18:39.777Z,9.17
2018-10-16T14:21:08.249Z,80.53
2018-10-16T14:23:38.789Z,67.47
2018-10-16T14:26:07.428Z,28.27
2018-10-16T14:28:39.297Z,11.53
2018-10-16T14:31:09.324Z,13.53
2018-10-16T14:33:37.852Z,10.57
2018-10-16T14:36:07.260Z,11.67
2018-10-16T14:38:35.765Z,8.53
2018-10-16T14:41:04.297Z,8.70
2018-10-16T14:43:32.770Z,10.03
2018-10-16T14:46:01.927Z,8.40
2018-10-16T14:48:30.363Z,8.20
2018-10-16T14:51:14.862Z,6.70
2018-10-16T14:53:43.405Z,9.50
2018-10-16T14:56:11.957Z,5.77
2018-10-16T14:58:40.374Z,6.60
2018-10-16T15:01:08.869Z,7.63
2018-10-16T15:03:37.329Z,7.63
2018-10-16T15:06:05.813Z,7.83
2018-10-16T15:08:34.268Z,8.00
2018-10-16T15:11:02.762Z,7.50
2018-10-16T15:13:31.309Z,7.13
2018-10-16T15:15:59.852Z,7.13
2018-10-16T15:18:28.255Z,7.10
2018-10-16T15:20:56.741Z,6.87
2018-10-16T15:23:25.253Z,8.67
2018-10-16T15:25:53.733Z,7.27
2018-10-16T15:28:22.222Z,7.53
2018-10-16T15:30:50.707Z,7.17
2018-10-16T15:33:19.206Z,7.03
2018-10-16T15:35:47.781Z,7.43
2018-10-16T15:38:16.162Z,7.00
2018-10-16T15:40:44.615Z,7.57
2018-10-16T15:43:13.123Z,8.50
2018-10-16T15:45:41.583Z,7.70
2018-10-16T15:48:10.183Z,5.87
2018-10-16T15:50:38.651Z,7.50
2018-10-16T15:53:07.109Z,6.93
2018-10-16T15:55:35.585Z,7.03
2018-10-16T15:58:04.407Z,6.90
2018-10-16T16:00:32.847Z,6.33
2018-10-16T16:03:01.326Z,5.97
2018-10-16T16:05:29.820Z,28.50
2018-10-16T16:07:58.454Z,27.33
2018-10-16T16:10:26.878Z,12.50
2018-10-16T16:12:55.530Z,7.50
2018-10-16T16:15:24.072Z,5.87
2018-10-16T16:17:52.938Z,6.30
2018-10-16T16:20:21.460Z,5.60
2018-10-16T16:22:50.041Z,5.70
2018-10-16T16:25:18.571Z,5.30
2018-10-16T16:27:47.390Z,5.03
2018-10-16T16:30:16.793Z,5.60
2018-10-16T16:32:45.600Z,5.10
2018-10-16T16:35:14.493Z,6.20
2018-10-16T16:37:43.391Z,5.33
2018-10-16T16:40:13.593Z,5.10
2018-10-16T16:42:42.480Z,5.47
2018-10-16T16:45:12.036Z,5.73
2018-10-16T16:47:40.981Z,6.30
2018-10-16T16:50:11.108Z,6.67
2018-10-16T16:52:40.566Z,6.60
2018-10-16T16:55:11.094Z,5.90
2018-10-16T16:57:40.125Z,6.10
2018-10-16T17:00:11.698Z,6.57
2018-10-16T17:02:41.386Z,6.50
2018-10-16T17:05:11.021Z,6.73
2018-10-16T17:07:40.583Z,8.20
2018-10-16T17:10:09.727Z,8.77
2018-10-16T17:12:39.688Z,15.70
2018-10-16T17:15:11.914Z,21.43
2018-10-16T17:17:40.860Z,19.03
2018-10-16T17:20:10.680Z,18.37
2018-10-16T17:22:39.482Z,16.73
2018-10-16T17:25:10.155Z,14.30
2018-10-16T17:27:38.990Z,10.73
2018-10-16T17:30:10.071Z,9.90
2018-10-16T17:32:39.203Z,11.77
2018-10-16T17:35:09.630Z,12.17
2018-10-16T17:37:38.834Z,16.53
2018-10-16T17:40:09.292Z,10.13
2018-10-16T17:42:38.212Z,8.90
2018-10-16T17:45:08.681Z,7.80
2018-10-16T17:47:37.632Z,13.27
2018-10-16T17:50:08.793Z,11.00
2018-10-16T17:52:37.601Z,6.53
2018-10-16T17:55:07.069Z,6.90
2018-10-16T17:57:36.079Z,10.10
2018-10-16T18:00:05.322Z,5.37
2018-10-16T18:02:34.165Z,10.17
2018-10-16T18:05:03.020Z,7.20
2018-10-16T18:07:31.895Z,12.27
2018-10-16T18:10:00.746Z,7.47
2018-10-16T18:12:29.616Z,9.20
2018-10-16T18:14:58.503Z,8.57
2018-10-16T18:17:27.336Z,6.27
2018-10-16T18:19:56.207Z,6.47
2018-10-16T18:22:25.049Z,6.37
2018-10-16T18:24:53.922Z,7.70
2018-10-16T18:27:22.762Z,8.30
2018-10-16T18:29:51.671Z,7.23
2018-10-16T18:32:20.481Z,8.27
2018-10-16T18:34:50.361Z,9.67
2018-10-16T18:37:19.271Z,7.60
2018-10-16T18:39:48.164Z,8.30
2018-10-16T18:42:18.059Z,8.13
2018-10-16T18:44:46.899Z,8.37
2018-10-16T18:47:15.759Z,8.93
2018-10-16T18:49:44.693Z,10.33
2018-10-16T18:52:13.573Z,8.83
2018-10-16T18:54:42.421Z,10.10
2018-10-16T18:57:11.330Z,10.77
2018-10-16T18:59:40.096Z,10.27
2018-10-16T19:02:11.988Z,17.40
2018-10-16T19:04:40.818Z,12.17
2018-10-16T19:07:09.715Z,12.17
2018-10-16T19:09:38.340Z,9.50
2018-10-16T19:12:06.848Z,10.63
2018-10-16T19:14:35.348Z,13.40
2018-10-16T19:17:04.056Z,10.67
2018-10-16T19:19:32.880Z,10.80
2018-10-16T19:22:01.365Z,11.10
2018-10-16T19:24:29.838Z,13.30
2018-10-16T19:26:58.427Z,12.30
2018-10-16T19:29:28.520Z,11.40
2018-10-16T19:31:57.068Z,10.43
2018-10-16T19:34:25.556Z,15.47
2018-10-16T19:36:54.054Z,14.67
2018-10-16T19:39:23.079Z,13.37
2018-10-16T19:41:52.268Z,12.97
2018-10-16T19:44:20.740Z,11.70
2018-10-16T19:46:49.552Z,13.40
2018-10-16T19:49:18.397Z,14.33
2018-10-16T19:51:47.241Z,12.57
2018-10-16T19:54:16.841Z,11.30
2018-10-16T19:56:45.737Z,10.57
2018-10-16T19:59:14.621Z,11.47
2018-10-16T20:01:43.479Z,12.53
2018-10-16T20:04:12.348Z,10.70
2018-10-16T20:06:41.225Z,11.63
2018-10-16T20:09:11.244Z,10.73
2018-10-16T20:11:40.625Z,15.87
2018-10-16T20:14:09.664Z,13.27
2018-10-16T20:16:38.538Z,14.13
2018-10-16T20:19:08.577Z,12.43
2018-10-16T20:21:37.271Z,10.67
2018-10-16T20:24:05.887Z,11.00
2018-10-16T20:26:35.417Z,10.07
2018-10-16T20:29:04.934Z,12.40
2018-10-16T20:31:33.629Z,10.30
2018-10-16T20:34:02.160Z,12.33
2018-10-16T20:36:30.797Z,12.27
2018-10-16T20:38:59.289Z,17.30
2018-10-16T20:41:27.793Z,11.67
2018-10-16T20:43:56.331Z,11.83
2018-10-16T20:46:26.034Z,12.27
2018-10-16T20:48:54.601Z,9.93
2018-10-16T20:51:23.944Z,10.60
2018-10-16T20:53:53.439Z,11.20
2018-10-16T20:56:21.958Z,10.20
2018-10-16T20:58:52.344Z,12.67
2018-10-16T21:01:21.099Z,11.20
2018-10-16T21:03:50.280Z,10.37
2018-10-16T21:06:21.051Z,10.87
2018-10-16T21:08:51.249Z,11.37
2018-10-16T21:11:20.233Z,11.47
2018-10-16T21:13:49.070Z,12.80
2018-10-16T21:16:17.926Z,10.73
2018-10-16T21:18:46.783Z,10.03
2018-10-16T21:21:15.680Z,10.73
2018-10-16T21:23:44.529Z,11.27
2018-10-16T21:26:14.470Z,10.20
2018-10-16T21:28:43.318Z,10.67
2018-10-16T21:31:12.251Z,11.07
2018-10-16T21:33:41.056Z,10.70
2018-10-16T21:36:09.908Z,12.87
2018-10-16T21:38:38.789Z,10.57
2018-10-16T21:41:07.732Z,11.10
2018-10-16T21:43:36.561Z,13.00
2018-10-16T21:46:06.028Z,11.50
2018-10-16T21:48:34.891Z,10.60
2018-10-16T21:51:03.873Z,9.83
2018-10-16T21:53:32.816Z,10.17
2018-10-16T21:56:01.664Z,9.00
2018-10-16T21:58:30.499Z,11.50
2018-10-16T22:01:04.769Z,11.20
2018-10-16T22:03:33.550Z,11.93
2018-10-16T22:06:02.396Z,12.90
2018-10-16T22:08:31.262Z,20.63
2018-10-16T22:11:00.138Z,17.10
2018-10-16T22:13:29.011Z,15.10
2018-10-16T22:15:58.956Z,19.17
2018-10-16T22:18:27.890Z,18.40
2018-10-16T22:20:56.792Z,12.87
2018-10-16T22:23:25.735Z,25.03
2018-10-16T22:25:54.578Z,16.73
2018-10-16T22:28:23.421Z,15.90
2018-10-16T22:30:52.289Z,14.63
2018-10-16T22:33:21.113Z,13.53
2018-10-16T22:35:49.974Z,15.07
2018-10-16T22:38:18.865Z,13.33
2018-10-16T22:40:47.416Z,12.60
2018-10-16T22:43:15.955Z,13.23
2018-10-16T22:45:44.405Z,11.30
2018-10-16T22:48:13.169Z,11.27
2018-10-16T22:50:41.724Z,11.83
2018-10-16T22:53:10.239Z,12.00
2018-10-16T22:55:38.701Z,11.17
2018-10-16T22:58:07.199Z,12.03
2018-10-16T23:00:35.687Z,13.27
2018-10-16T23:03:04.205Z,11.57
2018-10-16T23:05:32.678Z,11.80
2018-10-16T23:08:01.474Z,11.47
2018-10-16T23:10:30.023Z,10.80
2018-10-16T23:12:59.529Z,11.73
2018-10-16T23:15:27.965Z,11.10
2018-10-16T23:17:56.487Z,13.03
2018-10-16T23:20:24.984Z,12.10
2018-10-16T23:22:53.505Z,11.67
2018-10-16T23:25:22.028Z,11.27
2018-10-16T23:27:50.506Z,11.10
2018-10-16T23:30:18.975Z,12.20
2018-10-16T23:32:47.967Z,11.53
2018-10-16T23:35:16.813Z,11.80
2018-10-16T23:37:45.256Z,10.47
2018-10-16T23:40:13.741Z,10.93
2018-10-16T23:42:42.209Z,10.77
2018-10-16T23:45:10.745Z,10.53
2018-10-16T23:47:39.252Z,10.63
2018-10-16T23:50:07.713Z,9.27
2018-10-16T23:52:36.184Z,10.90
2018-10-16T23:55:05.496Z,10.20
2018-10-16T23:57:33.979Z,10.63
